Decoded Metar for LRCL (CLUJ-NAPOCA in ROMANIA) (IATA:CLJ) | Meteo·Mobile Aviation Weather
aviador You're here:

LRCL Decoded Metar

CLUJ-NAPOCA in ROMANIA
Report Time2018-09-23 13:30:00
UTC Time2018-09-23 13:49:46
Flight Rules vfr VFR
Wind080° at 05 kt
W.Decomp.*RWY 08: 5.0 kt HW 0.3 kt LCW
W.Rank080° ranks 3
Current wind is above 080° avg. (4.7)
Visibility9999 m
Phenomena:N/A
Clouds:N/A
Expected CloudBase > 6,000 ft AGL from Temp-Dew spread
CeilingNone
Temp20°C (ISA +8)
Dew Point05°C (38% RH)
AAT17.1°C
QNH1020 hPa
Density Alt2,139 ft
Elevation1,355 ft
Report Wrong Elevation
Raw Report
METAR LRCL 231330Z 08005KT 040V130 CAVOK 20/05 Q1020=

Extra information for LRCL:More info

Metar Taf Metar & Taf Last 4 Metars F.Rules Stats Wind Profile Meteogram Temp Stats Airport Information Weather charts Add Link Nearby VenuesMetar ALERT Operation Metar Decoded Social comments